Time;durP1;ratioP1;P1;durP2;ratioP2;P2;SDS_P1;SDS_P2;PMS_P1;PMS_P2;Temp;Humidity;BMP_temperature;BMP_pressure;BME280_temperature;BME280_humidity;BME280_pressure;Samples;Min_cycle;Max_cycle;Signal;HPM_P1;HPM_P2
2022/06/26 00:01:51;;;;;;;28.48;22.35;;;18.10;99.90;;;;;;5076617;28;20489;-47
2022/06/26 00:04:16;;;;;;;22.48;19.73;;;17.70;99.90;;;;;;5076992;28;20056;-48
2022/06/26 00:06:42;;;;;;;24.73;22.13;;;17.10;99.90;;;;;;5076317;28;20409;-47
2022/06/26 00:09:13;;;;;;;25.60;22.83;;;17.50;99.90;;;;;;5074635;28;20050;-47
2022/06/26 00:11:39;;;;;;;28.40;23.65;;;16.20;99.90;;;;;;5074802;28;20035;-47
2022/06/26 00:14:05;;;;;;;24.13;21.52;;;16.60;99.90;;;;;;5075472;28;20070;-44
2022/06/26 00:16:34;;;;;;;25.75;21.33;;;16.30;99.90;;;;;;5074779;28;20075;-43
2022/06/26 00:18:59;;;;;;;28.35;24.48;;;16.20;99.90;;;;;;5076325;28;20822;-47
2022/06/26 00:21:25;;;;;;;37.85;27.83;;;17.20;99.90;;;;;;5073017;28;20109;-43
2022/06/26 00:23:51;;;;;;;33.55;28.20;;;17.00;99.90;;;;;;5074780;28;20113;-48
2022/06/26 00:26:17;;;;;;;29.13;26.08;;;16.30;99.90;;;;;;5075393;28;20172;-44
2022/06/26 00:28:43;;;;;;;27.20;23.02;;;16.80;99.90;;;;;;5075491;28;20096;-43
2022/06/26 00:31:09;;;;;;;26.38;21.70;;;16.50;99.90;;;;;;5076052;28;20632;-44
2022/06/26 00:33:36;;;;;;;22.25;18.42;;;17.10;99.90;;;;;;5074412;28;20088;-45
2022/06/26 00:36:02;;;;;;;23.38;20.55;;;18.10;99.90;;;;;;5075030;28;20075;-45
2022/06/26 00:38:28;;;;;;;26.17;21.65;;;16.50;99.90;;;;;;5075109;28;20127;-47
2022/06/26 00:40:53;;;;;;;28.02;24.67;;;16.40;99.90;;;;;;5076021;28;20036;-43
2022/06/26 00:43:25;;;;;;;23.13;20.73;;;16.50;99.90;;;;;;5073872;28;20076;-44
2022/06/26 00:45:51;;;;;;;23.48;21.02;;;16.40;99.90;;;;;;5074780;28;20128;-47
2022/06/26 00:48:17;;;;;;;24.05;21.45;;;16.50;99.90;;;;;;5075277;28;20047;-48
2022/06/26 00:50:44;;;;;;;30.10;25.70;;;16.30;99.90;;;;;;5074145;28;20036;-46
2022/06/26 00:53:10;;;;;;;22.67;16.88;;;16.40;99.90;;;;;;5075880;28;20036;-45
2022/06/26 00:55:37;;;;;;;23.40;18.58;;;17.40;99.90;;;;;;5076133;28;20052;-46
2022/06/26 00:58:02;;;;;;;24.30;18.85;;;16.50;99.90;;;;;;5077608;28;20044;-44
2022/06/26 01:00:28;;;;;;;23.95;20.40;;;16.70;99.90;;;;;;5076142;28;20058;-44
2022/06/26 01:02:54;;;;;;;29.95;19.85;;;16.60;99.90;;;;;;5076327;28;20309;-43
2022/06/26 01:05:20;;;;;;;23.35;14.70;;;16.60;99.90;;;;;;5075815;28;20055;-48
2022/06/26 01:07:47;;;;;;;23.75;16.77;;;16.70;99.90;;;;;;5075851;28;20055;-46
2022/06/26 01:10:13;;;;;;;25.35;17.75;;;16.90;99.90;;;;;;5075479;28;20036;-43
2022/06/26 01:12:39;;;;;;;24.83;18.90;;;16.90;99.90;;;;;;5075711;28;20408;-46
2022/06/26 01:15:09;;;;;;;20.25;14.95;;;16.70;99.90;;;;;;5076014;28;20118;-47
2022/06/26 01:17:34;;;;;;;19.25;14.75;;;16.90;99.90;;;;;;5074766;28;20036;-47
2022/06/26 01:20:02;;;;;;;18.30;15.73;;;17.60;99.90;;;;;;5074726;28;20035;-46
2022/06/26 01:22:29;;;;;;;20.02;15.45;;;18.10;99.90;;;;;;5073670;28;20044;-45
2022/06/26 01:24:55;;;;;;;19.77;15.30;;;16.90;99.90;;;;;;5074402;28;20551;-46
2022/06/26 01:27:21;;;;;;;19.25;14.88;;;18.60;99.90;;;;;;5073849;28;20040;-47
2022/06/26 01:29:47;;;;;;;18.90;14.20;;;17.10;99.90;;;;;;5075486;28;20523;-48
2022/06/26 01:32:13;;;;;;;21.63;13.57;;;17.10;99.90;;;;;;5074498;28;20047;-48
2022/06/26 01:34:39;;;;;;;19.90;13.90;;;17.00;99.90;;;;;;5072781;28;20032;-48
2022/06/26 01:37:05;;;;;;;15.95;11.02;;;19.00;99.90;;;;;;5073308;28;20071;-43
2022/06/26 01:39:30;;;;;;;18.05;12.40;;;16.90;99.90;;;;;;5075079;28;20456;-47
2022/06/26 01:41:56;;;;;;;18.73;12.13;;;16.90;99.90;;;;;;5074305;28;20058;-47
2022/06/26 01:44:22;;;;;;;16.65;11.80;;;16.70;99.90;;;;;;5073131;28;20122;-45
2022/06/26 01:46:47;;;;;;;16.98;11.57;;;17.10;99.90;;;;;;5074587;28;20132;-46
2022/06/26 01:49:13;;;;;;;18.83;11.20;;;17.30;99.90;;;;;;5074518;28;20063;-45
2022/06/26 01:51:39;;;;;;;13.25;9.95;;;16.70;99.90;;;;;;5074401;28;20128;-46
2022/06/26 01:54:06;;;;;;;18.40;11.52;;;17.00;99.90;;;;;;5073538;28;20063;-42
2022/06/26 01:56:32;;;;;;;16.08;10.40;;;18.10;99.90;;;;;;5073858;28;20051;-47
2022/06/26 01:58:58;;;;;;;14.50;9.50;;;16.80;99.90;;;;;;5075693;28;20065;-43
2022/06/26 02:01:24;;;;;;;16.90;10.05;;;17.80;99.90;;;;;;5073544;28;20040;-47
2022/06/26 02:03:51;;;;;;;13.75;10.63;;;16.90;99.90;;;;;;5073996;28;20082;-46
2022/06/26 02:06:17;;;;;;;15.00;10.57;;;17.00;99.90;;;;;;5073752;28;20047;-45
2022/06/26 02:08:43;;;;;;;13.52;9.48;;;18.70;99.90;;;;;;5074644;28;20684;-47
2022/06/26 02:13:55;;;;;;;15.30;10.23;;;17.70;99.90;;;;;;5074484;28;20208;-43
2022/06/26 02:16:24;;;;;;;16.98;12.00;;;17.00;99.90;;;;;;5074379;28;20257;-48
2022/06/26 02:18:53;;;;;;;13.35;10.57;;;16.90;99.90;;;;;;5073910;28;20077;-46
2022/06/26 02:21:21;;;;;;;18.02;12.95;;;16.70;99.90;;;;;;5073919;28;20119;-47
2022/06/26 02:23:48;;;;;;;14.57;11.50;;;16.90;99.90;;;;;;5074603;28;20131;-46
2022/06/26 02:26:17;;;;;;;13.77;11.45;;;16.80;99.90;;;;;;5074073;28;20039;-48
2022/06/26 02:28:43;;;;;;;16.15;11.98;;;16.90;99.90;;;;;;5074997;28;20140;-44
2022/06/26 02:31:11;;;;;;;18.17;12.57;;;16.90;99.90;;;;;;5072911;28;20519;-46
2022/06/26 02:33:38;;;;;;;17.98;11.35;;;16.90;99.90;;;;;;5073122;28;20491;-47
2022/06/26 02:36:05;;;;;;;15.65;10.10;;;17.00;99.90;;;;;;5070774;28;20425;-48
2022/06/26 02:38:32;;;;;;;15.88;10.45;;;16.90;99.90;;;;;;5071119;28;20040;-47
2022/06/26 02:40:57;;;;;;;13.60;9.65;;;16.80;99.90;;;;;;5071846;28;20575;-47
2022/06/26 02:43:23;;;;;;;13.30;8.85;;;19.00;99.90;;;;;;5072079;28;20288;-47
2022/06/26 02:45:52;;;;;;;13.00;9.52;;;17.40;99.90;;;;;;5072229;28;20051;-44
2022/06/26 02:48:19;;;;;;;9.68;7.60;;;16.80;99.90;;;;;;5071293;28;20051;-43
2022/06/26 02:50:46;;;;;;;14.43;7.70;;;16.60;99.90;;;;;;5073397;28;20250;-44
2022/06/26 02:53:14;;;;;;;10.88;8.15;;;18.40;99.90;;;;;;5071056;28;20914;-47
2022/06/26 02:55:41;;;;;;;13.90;7.80;;;16.50;99.90;;;;;;5073243;28;20159;-47
2022/06/26 02:58:06;;;;;;;12.10;8.35;;;16.40;99.90;;;;;;5072500;28;20036;-45
2022/06/26 03:00:32;;;;;;;12.02;8.88;;;16.70;99.90;;;;;;5073469;28;20370;-47
2022/06/26 03:03:00;;;;;;;14.43;9.20;;;16.60;99.90;;;;;;5072338;28;20044;-45
2022/06/26 03:05:29;;;;;;;15.10;9.35;;;17.80;99.90;;;;;;5072745;28;20075;-47
2022/06/26 03:07:56;;;;;;;13.27;8.43;;;16.40;99.90;;;;;;5072728;28;20039;-47
2022/06/26 03:10:22;;;;;;;12.43;8.30;;;18.30;99.90;;;;;;5073183;28;20512;-47
2022/06/26 03:12:50;;;;;;;15.70;10.70;;;17.30;99.90;;;;;;5073726;28;20094;-43
2022/06/26 03:15:17;;;;;;;9.90;8.88;;;17.80;99.90;;;;;;5073197;28;20508;-46
2022/06/26 03:17:42;;;;;;;13.60;8.38;;;16.20;99.90;;;;;;5076543;28;20106;-43
2022/06/26 03:20:14;;;;;;;11.80;8.40;;;16.30;99.90;;;;;;5077068;28;20245;-45
2022/06/26 03:22:40;;;;;;;10.98;8.18;;;17.00;99.90;;;;;;5077763;28;20200;-46
2022/06/26 03:25:07;;;;;;;13.23;7.32;;;16.30;99.90;;;;;;5077846;28;20301;-44
2022/06/26 03:27:36;;;;;;;10.20;7.28;;;16.30;99.90;;;;;;5076684;28;20044;-42
2022/06/26 03:30:06;;;;;;;9.43;6.55;;;16.40;99.90;;;;;;5077182;28;20032;-45
2022/06/26 03:32:32;;;;;;;8.73;5.90;;;16.40;99.90;;;;;;5077289;28;20056;-44
2022/06/26 03:34:59;;;;;;;7.55;5.15;;;16.50;99.90;;;;;;5076732;28;20305;-43
2022/06/26 03:37:25;;;;;;;13.52;5.15;;;16.20;99.90;;;;;;5076724;28;20583;-44
2022/06/26 03:39:51;;;;;;;10.88;5.30;;;16.30;99.90;;;;;;5076421;28;20055;-43
2022/06/26 03:42:18;;;;;;;9.65;5.20;;;16.40;99.90;;;;;;5075757;28;20063;-43
2022/06/26 03:44:44;;;;;;;8.38;5.18;;;16.50;99.90;;;;;;5075468;28;20078;-43
2022/06/26 03:47:13;;;;;;;11.95;5.00;;;16.30;99.90;;;;;;5076490;28;20147;-47
2022/06/26 03:49:38;;;;;;;7.88;4.40;;;17.20;99.90;;;;;;5076623;28;20096;-45
2022/06/26 03:52:04;;;;;;;8.73;5.18;;;16.40;99.90;;;;;;5076357;28;20523;-46
2022/06/26 03:54:30;;;;;;;7.03;4.63;;;16.40;99.90;;;;;;5075352;28;20036;-45
2022/06/26 03:56:56;;;;;;;7.25;4.80;;;16.50;99.90;;;;;;5076070;28;20062;-45
2022/06/26 03:59:22;;;;;;;8.38;4.80;;;17.00;99.90;;;;;;5076636;28;20381;-46
2022/06/26 04:01:50;;;;;;;9.30;4.95;;;17.40;99.90;;;;;;5076056;28;20407;-42
2022/06/26 04:04:15;;;;;;;8.30;5.35;;;18.60;99.90;;;;;;5074756;28;20089;-46
2022/06/26 04:06:41;;;;;;;8.27;4.97;;;18.10;99.90;;;;;;5074394;28;20824;-46
2022/06/26 04:09:07;;;;;;;9.13;5.07;;;16.40;99.90;;;;;;5075354;28;20065;-47
2022/06/26 04:11:32;;;;;;;9.50;5.63;;;16.70;99.90;;;;;;5074906;28;20036;-43
2022/06/26 04:13:58;;;;;;;8.35;4.97;;;17.50;99.90;;;;;;5075125;28;20039;-42
2022/06/26 04:16:27;;;;;;;8.13;4.70;;;18.80;99.90;;;;;;5075187;28;20822;-44
2022/06/26 04:18:55;;;;;;;7.10;4.68;;;16.30;99.90;;;;;;5075829;28;20051;-44
2022/06/26 04:21:20;;;;;;;7.00;4.68;;;16.60;99.90;;;;;;5075040;28;20032;-45
2022/06/26 04:23:46;;;;;;;8.68;5.18;;;16.30;99.90;;;;;;5074675;28;20527;-45
2022/06/26 04:26:12;;;;;;;8.30;5.20;;;16.60;99.90;;;;;;5075280;28;20119;-45
2022/06/26 04:28:37;;;;;;;8.05;5.15;;;18.60;99.90;;;;;;5074557;28;20044;-46
2022/06/26 04:31:03;;;;;;;8.35;5.03;;;16.50;99.90;;;;;;5075540;28;20078;-47
2022/06/26 04:33:32;;;;;;;8.23;4.85;;;16.60;99.90;;;;;;5073150;28;20094;-46
2022/06/26 04:35:57;;;;;;;7.78;4.88;;;16.70;99.90;;;;;;5074797;28;20044;-44
2022/06/26 04:38:23;;;;;;;6.95;5.05;;;17.00;99.90;;;;;;5075069;28;20051;-43
2022/06/26 04:40:49;;;;;;;8.63;5.03;;;16.90;99.90;;;;;;5076198;28;20395;-45
2022/06/26 04:43:15;;;;;;;7.65;4.50;;;16.40;99.90;;;;;;5074900;28;20392;-43
2022/06/26 04:45:40;;;;;;;6.65;5.20;;;18.70;99.90;;;;;;5075882;28;20064;-45
2022/06/26 04:48:08;;;;;;;8.15;5.20;;;16.60;99.90;;;;;;5074734;28;21035;-44
2022/06/26 04:50:34;;;;;;;8.15;5.60;;;16.60;99.90;;;;;;5075739;28;20101;-42
2022/06/26 04:53:00;;;;;;;11.25;5.90;;;17.20;99.90;;;;;;5075425;28;20032;-45
2022/06/26 04:55:27;;;;;;;7.70;5.90;;;18.10;99.90;;;;;;5075553;28;20036;-43
2022/06/26 04:57:53;;;;;;;12.32;6.57;;;17.00;99.90;;;;;;5077110;28;20036;-45
2022/06/26 05:00:19;;;;;;;10.15;5.55;;;16.50;99.90;;;;;;5075238;28;20036;-42
2022/06/26 05:02:45;;;;;;;9.32;5.55;;;18.20;99.90;;;;;;5075411;28;20043;-42
2022/06/26 05:05:12;;;;;;;8.90;5.13;;;16.70;99.90;;;;;;5073098;28;20052;-47
2022/06/26 05:07:38;;;;;;;6.88;4.93;;;16.80;99.90;;;;;;5075236;28;20036;-46
2022/06/26 05:10:04;;;;;;;8.85;5.43;;;17.80;99.90;;;;;;5074195;28;20047;-45
2022/06/26 05:12:31;;;;;;;8.15;4.70;;;17.00;99.90;;;;;;5074077;28;20948;-45
2022/06/26 05:14:57;;;;;;;8.52;5.20;;;18.30;99.90;;;;;;5073996;28;20500;-43
2022/06/26 05:17:23;;;;;;;7.85;5.10;;;19.20;99.90;;;;;;5073789;28;20043;-47
2022/06/26 05:19:49;;;;;;;7.47;5.93;;;17.70;99.90;;;;;;5073511;28;20134;-45
2022/06/26 05:22:14;;;;;;;8.73;5.43;;;16.90;99.90;;;;;;5073585;28;20078;-42
2022/06/26 05:24:40;;;;;;;6.93;5.68;;;17.00;99.90;;;;;;5073711;28;20408;-46
2022/06/26 05:27:05;;;;;;;8.18;6.03;;;17.10;99.90;;;;;;5074743;28;20504;-45
2022/06/26 05:29:31;;;;;;;10.93;5.80;;;17.10;99.90;;;;;;5073873;28;20560;-45
2022/06/26 05:31:57;;;;;;;7.35;5.85;;;17.20;99.90;;;;;;5073274;28;20751;-44
2022/06/26 05:34:24;;;;;;;8.10;5.68;;;15.00;99.90;;;;;;5072334;28;20131;-44
2022/06/26 05:36:52;;;;;;;10.98;6.32;;;17.70;99.90;;;;;;5071712;28;20040;-45
2022/06/26 05:39:18;;;;;;;7.78;6.30;;;19.30;99.90;;;;;;5072465;28;20504;-45
2022/06/26 05:41:43;;;;;;;8.70;6.35;;;17.30;99.90;;;;;;5071373;28;20296;-47
2022/06/26 05:44:09;;;;;;;10.10;6.50;;;19.00;99.90;;;;;;5072602;28;20123;-42
2022/06/26 05:46:35;;;;;;;9.32;7.13;;;17.10;99.90;;;;;;5072291;28;20177;-45
2022/06/26 05:49:01;;;;;;;9.88;7.72;;;17.20;99.90;;;;;;5072618;28;20121;-45
2022/06/26 05:51:28;;;;;;;15.75;8.48;;;18.90;99.90;;;;;;5071647;28;20036;-51
2022/06/26 05:53:54;;;;;;;10.57;8.43;;;18.10;99.90;;;;;;5072432;28;20128;-44
2022/06/26 05:56:20;;;;;;;11.95;9.25;;;17.50;99.90;;;;;;5073443;28;20123;-43
2022/06/26 05:58:45;;;;;;;11.32;9.60;;;17.60;99.90;;;;;;5071901;28;20408;-47
2022/06/26 06:01:11;;;;;;;11.52;9.35;;;17.30;99.90;;;;;;5073342;28;20040;-44
2022/06/26 06:03:37;;;;;;;12.20;9.88;;;17.50;99.90;;;;;;5073746;28;20070;-42
2022/06/26 06:06:04;;;;;;;14.32;11.95;;;18.40;99.90;;;;;;5073930;28;20031;-44
2022/06/26 06:08:30;;;;;;;13.00;11.68;;;18.10;99.90;;;;;;5072826;28;20040;-43
2022/06/26 06:10:56;;;;;;;15.80;11.57;;;17.60;99.90;;;;;;5072884;28;20043;-47
2022/06/26 06:13:21;;;;;;;16.67;12.93;;;17.30;99.90;;;;;;5072635;28;20048;-43
2022/06/26 06:15:47;;;;;;;14.75;12.65;;;18.70;99.90;;;;;;5072169;28;20558;-45
2022/06/26 06:18:13;;;;;;;17.75;13.05;;;19.60;99.90;;;;;;5072301;28;20503;-48
2022/06/26 06:20:38;;;;;;;19.77;15.90;;;18.20;99.90;;;;;;5073763;28;20417;-47
2022/06/26 06:23:06;;;;;;;19.02;14.63;;;17.30;99.90;;;;;;5073447;28;20125;-45
2022/06/26 06:25:34;;;;;;;15.65;13.50;;;17.60;99.90;;;;;;5072500;28;20527;-46
2022/06/26 06:28:00;;;;;;;19.25;16.00;;;17.60;99.90;;;;;;5072581;28;20127;-47
2022/06/26 06:30:26;;;;;;;19.23;15.70;;;18.10;99.90;;;;;;5073499;28;20610;-45
2022/06/26 06:32:54;;;;;;;18.92;16.13;;;17.30;99.90;;;;;;5071764;28;20036;-47
2022/06/26 06:35:20;;;;;;;17.67;15.25;;;18.30;99.90;;;;;;5069971;28;20051;-45
2022/06/26 06:37:46;;;;;;;16.83;15.10;;;17.30;99.90;;;;;;5070868;28;20039;-44
2022/06/26 06:40:14;;;;;;;19.10;17.10;;;17.90;99.90;;;;;;5070191;28;20106;-44
2022/06/26 06:42:40;;;;;;;24.23;20.70;;;17.30;99.90;;;;;;5072024;28;20374;-47
2022/06/26 06:45:06;;;;;;;25.48;22.67;;;17.40;99.90;;;;;;5071954;28;20040;-42
2022/06/26 06:47:35;;;;;;;25.20;22.52;;;17.30;99.90;;;;;;5070700;28;20043;-46
2022/06/26 06:50:02;;;;;;;24.65;21.75;;;17.30;99.90;;;;;;5070364;28;20079;-46
2022/06/26 06:52:27;;;;;;;24.48;21.83;;;19.60;99.90;;;;;;5075357;28;20035;-43
2022/06/26 06:54:55;;;;;;;26.70;23.20;;;17.40;99.90;;;;;;5078321;28;20032;-46
2022/06/26 06:57:21;;;;;;;27.38;24.35;;;17.30;99.90;;;;;;5076423;28;20534;-44
2022/06/26 06:59:47;;;;;;;30.85;25.45;;;17.30;99.90;;;;;;5078068;28;20454;-46
2022/06/26 07:02:12;;;;;;;29.55;26.42;;;17.40;99.90;;;;;;5077321;28;20048;-46
2022/06/26 07:04:38;;;;;;;31.67;25.60;;;17.50;99.90;;;;;;5078331;28;20036;-47
2022/06/26 07:07:04;;;;;;;30.13;25.75;;;19.50;99.90;;;;;;5076132;28;20427;-47
2022/06/26 07:09:30;;;;;;;26.83;23.83;;;17.40;99.90;;;;;;5076054;28;20040;-47
2022/06/26 07:11:56;;;;;;;29.90;24.33;;;19.50;99.90;;;;;;5076786;28;20036;-45
2022/06/26 07:14:22;;;;;;;28.13;25.27;;;17.50;99.90;;;;;;5077328;28;20528;-46
2022/06/26 07:16:49;;;;;;;26.38;23.58;;;18.10;99.90;;;;;;5076308;28;20109;-47
2022/06/26 07:19:15;;;;;;;26.40;23.35;;;17.60;99.90;;;;;;5077008;28;20044;-46
2022/06/26 07:21:43;;;;;;;26.73;22.33;;;18.00;99.90;;;;;;5078263;28;20101;-48
2022/06/26 07:24:13;;;;;;;21.48;19.27;;;20.80;99.90;;;;;;5077316;28;20051;-47
2022/06/26 07:26:41;;;;;;;17.23;14.55;;;20.90;99.90;;;;;;5077933;28;20043;-47
2022/06/26 07:29:08;;;;;;;16.85;14.70;;;22.50;99.90;;;;;;5077275;28;20182;-46
2022/06/26 07:31:34;;;;;;;15.68;11.75;;;22.90;99.90;;;;;;5077984;28;20044;-46
2022/06/26 07:34:15;;;;;;;16.10;12.43;;;22.70;99.90;;;;;;5077499;28;20032;-47
2022/06/26 07:36:46;;;;;;;14.95;12.15;;;23.10;99.90;;;;;;5077560;28;20040;-47
2022/06/26 07:39:14;;;;;;;13.20;10.85;;;23.80;99.90;;;;;;5077336;28;20039;-47
2022/06/26 07:41:41;;;;;;;11.75;8.75;;;24.40;99.90;;;;;;5076503;28;20086;-47
2022/06/26 07:44:06;;;;;;;10.88;8.15;;;24.70;99.90;;;;;;5074923;28;20629;-45
2022/06/26 07:46:35;;;;;;;13.68;9.02;;;24.20;99.90;;;;;;5076118;28;20513;-47
2022/06/26 07:49:04;;;;;;;10.82;9.07;;;23.50;99.90;;;;;;5077609;28;20067;-46
2022/06/26 07:51:31;;;;;;;11.15;7.80;;;24.90;99.90;;;;;;5076822;28;20041;-46
2022/06/26 07:53:58;;;;;;;13.52;8.60;;;22.40;99.90;;;;;;5078168;28;20094;-46
2022/06/26 07:56:25;;;;;;;13.70;7.10;;;22.50;99.90;;;;;;5073387;28;20533;-45
2022/06/26 07:58:55;;;;;;;10.27;7.43;;;22.30;99.90;;;;;;5078010;28;20753;-47
2022/06/26 08:01:21;;;;;;;11.57;8.13;;;22.70;99.90;;;;;;5078438;28;20785;-44
2022/06/26 08:03:47;;;;;;;10.30;7.57;;;23.40;99.90;;;;;;5075282;28;20055;-47
2022/06/26 08:06:19;;;;;;;10.07;8.20;;;23.90;99.90;;;;;;5074017;28;20036;-45
2022/06/26 08:08:45;;;;;;;11.65;8.85;;;24.10;99.90;;;;;;5074317;28;20037;-48
2022/06/26 08:11:10;;;;;;;11.43;9.90;;;24.60;99.90;;;;;;5072657;28;20108;-46
2022/06/26 08:13:38;;;;;;;9.95;8.80;;;24.60;99.90;;;;;;5072940;28;20621;-46
2022/06/26 08:16:04;;;;;;;13.95;8.95;;;23.60;99.90;;;;;;5069825;28;20143;-44
2022/06/26 08:18:30;;;;;;;10.93;7.38;;;22.70;99.90;;;;;;5072621;28;20043;-48
2022/06/26 08:22:00;;;;;;;9.98;6.72;;;22.00;99.90;;;;;;5070403;28;20075;-48
2022/06/26 08:23:43;;;;;;;8.38;5.65;;;21.70;99.90;;;;;;5071429;28;20135;-46
2022/06/26 08:26:09;;;;;;;9.10;6.30;;;21.80;99.90;;;;;;5072313;28;20411;-48
2022/06/26 08:28:36;;;;;;;10.02;7.18;;;22.40;99.90;;;;;;5071218;28;20730;-48
2022/06/26 08:31:02;;;;;;;10.07;5.95;;;22.60;99.90;;;;;;5073757;28;20036;-46
2022/06/26 08:33:29;;;;;;;9.60;5.70;;;23.30;99.90;;;;;;5071638;28;20677;-46
2022/06/26 08:35:55;;;;;;;9.32;6.20;;;24.00;99.90;;;;;;5071275;28;20188;-47
2022/06/26 08:38:20;;;;;;;7.80;5.78;;;24.80;99.90;;;;;;5068781;28;20524;-49
2022/06/26 08:40:49;;;;;;;9.23;6.43;;;25.30;99.90;;;;;;5070147;28;20298;-47
2022/06/26 08:43:20;;;;;;;7.88;5.60;;;24.70;99.90;;;;;;5072059;28;20039;-48
2022/06/26 08:45:47;;;;;;;8.15;5.72;;;24.80;99.90;;;;;;5073211;28;20056;-49
2022/06/26 08:48:18;;;;;;;7.97;5.25;;;24.40;99.90;;;;;;5073598;28;20088;-44
2022/06/26 08:50:44;;;;;;;9.68;5.18;;;24.40;99.90;;;;;;5074446;28;20087;-46
2022/06/26 08:53:10;;;;;;;6.40;2.35;;;23.10;99.90;;;;;;5074870;28;20097;-48
2022/06/26 08:55:37;;;;;;;3.20;1.50;;;23.00;99.90;;;;;;5075520;28;20040;-48
2022/06/26 08:58:02;;;;;;;3.58;1.42;;;23.40;99.90;;;;;;5075293;28;20044;-50
2022/06/26 09:00:30;;;;;;;3.40;1.60;;;23.90;99.90;;;;;;5074673;28;20039;-49
2022/06/26 09:02:57;;;;;;;8.90;2.88;;;24.50;99.90;;;;;;5074331;28;20723;-44
2022/06/26 09:05:23;;;;;;;9.00;3.10;;;24.40;99.90;;;;;;5072729;28;20416;-45
2022/06/26 09:07:52;;;;;;;5.75;2.72;;;23.70;99.90;;;;;;5073508;28;20040;-45
2022/06/26 09:10:19;;;;;;;8.20;2.13;;;23.40;99.90;;;;;;5074415;28;20036;-47
2022/06/26 09:12:52;;;;;;;5.50;2.88;;;23.50;99.90;;;;;;5072805;28;20048;-48
2022/06/26 09:15:21;;;;;;;5.55;2.70;;;23.80;99.90;;;;;;5074033;28;20035;-45
2022/06/26 09:18:13;;;;;;;5.40;2.72;;;24.10;99.90;;;;;;5073327;28;20048;-44
2022/06/26 09:20:54;;;;;;;4.22;1.55;;;24.70;99.90;;;;;;5070743;28;20119;-45
2022/06/26 09:23:20;;;;;;;6.97;2.05;;;24.30;99.90;;;;;;5072937;28;20391;-47
2022/06/26 09:25:46;;;;;;;4.72;2.13;;;24.00;99.90;;;;;;5073193;28;20039;-48
2022/06/26 09:28:21;;;;;;;4.95;2.10;;;23.50;99.90;;;;;;5073449;28;20048;-46
2022/06/26 09:30:56;;;;;;;4.65;1.73;;;23.00;99.90;;;;;;5074323;28;20103;-47
2022/06/26 09:33:42;;;;;;;4.72;2.00;;;23.30;99.90;;;;;;5072063;28;20040;-48
2022/06/26 09:36:15;;;;;;;4.95;2.15;;;25.90;99.90;;;;;;5072837;28;20101;-49
2022/06/26 09:38:47;;;;;;;4.50;1.80;;;23.60;99.90;;;;;;5073233;28;20412;-48
2022/06/26 09:41:12;;;;;;;6.55;2.30;;;23.70;99.90;;;;;;5071914;28;20047;-47
2022/06/26 09:43:42;;;;;;;5.18;1.80;;;24.90;99.90;;;;;;5072693;28;20044;-48
2022/06/26 09:46:16;;;;;;;4.68;1.20;;;24.30;99.90;;;;;;5072290;28;20044;-47
2022/06/26 09:48:42;;;;;;;5.30;1.92;;;24.40;99.90;;;;;;5073131;28;20769;-49
2022/06/26 09:51:10;;;;;;;5.43;1.67;;;24.10;99.90;;;;;;5074185;28;20130;-45
2022/06/26 09:53:38;;;;;;;5.28;1.95;;;24.00;99.90;;;;;;5072697;28;20047;-46
2022/06/26 09:56:05;;;;;;;4.40;1.77;;;24.10;99.90;;;;;;5072890;28;20297;-46
2022/06/26 09:58:31;;;;;;;5.13;1.80;;;24.20;99.90;;;;;;5072406;28;20677;-50
2022/06/26 10:06:32;;;;;;;7.55;2.85;;;24.20;99.90;;;;;;5072679;28;20040;-50
2022/06/26 10:09:04;;;;;;;5.13;2.50;;;26.00;99.90;;;;;;5073461;28;20036;-49
2022/06/26 10:11:33;;;;;;;5.10;2.20;;;24.00;99.90;;;;;;5074573;28;20504;-48
2022/06/26 10:14:20;;;;;;;5.55;2.20;;;23.30;99.90;;;;;;5075457;28;20071;-45
2022/06/26 10:17:30;;;;;;;5.80;2.28;;;23.30;99.90;;;;;;5075531;28;20044;-48
2022/06/26 10:20:00;;;;;;;3.80;2.10;;;23.30;99.90;;;;;;4992993;28;20469;-48
2022/06/26 10:22:37;;;;;;;6.75;2.20;;;23.40;99.90;;;;;;4991788;28;20640;-46
2022/06/26 10:25:03;;;;;;;4.75;2.15;;;23.30;99.90;;;;;;4990470;28;20168;-47
2022/06/26 10:27:31;;;;;;;3.75;1.40;;;23.30;99.90;;;;;;4991913;28;20050;-44
2022/06/26 10:30:06;;;;;;;6.97;2.05;;;25.30;99.90;;;;;;4992265;28;20080;-46
2022/06/26 10:32:31;;;;;;;7.45;2.42;;;23.10;99.90;;;;;;4991588;28;20481;-47
2022/06/26 10:34:58;;;;;;;6.88;2.17;;;21.60;99.90;;;;;;4990746;28;20177;-44
2022/06/26 10:37:24;;;;;;;5.32;1.95;;;22.90;99.90;;;;;;4973453;28;20137;-49
2022/06/26 10:39:54;;;;;;;4.38;2.08;;;22.90;99.90;;;;;;4990946;28;20066;-46
2022/06/26 10:45:25;;;;;;;7.10;2.35;;;22.80;99.90;;;;;;4990650;28;20111;-49
2022/06/26 10:47:55;;;;;;;6.55;2.63;;;22.60;99.90;;;;;;4991118;28;20057;-48
2022/06/26 10:50:41;;;;;;;8.27;2.75;;;22.70;99.90;;;;;;4990566;28;20050;-44
2022/06/26 10:53:25;;;;;;;7.47;2.72;;;22.50;99.90;;;;;;4990060;28;20058;-47
2022/06/26 10:55:54;;;;;;;4.68;2.20;;;22.60;99.90;;;;;;5021873;28;20576;-47
2022/06/26 10:58:23;;;;;;;5.20;1.88;;;22.80;99.90;;;;;;5072736;28;20047;-48
2022/06/26 11:00:51;;;;;;;4.03;1.60;;;23.00;99.90;;;;;;5072239;28;20133;-46
2022/06/26 11:03:19;;;;;;;7.10;2.42;;;23.10;99.90;;;;;;5073925;28;20055;-47
2022/06/26 11:05:56;;;;;;;5.72;1.95;;;23.10;99.90;;;;;;5071921;28;20072;-46
2022/06/26 11:08:49;;;;;;;5.45;1.90;;;23.50;99.90;;;;;;5069698;28;20766;-48
2022/06/26 11:11:20;;;;;;;7.95;1.90;;;23.60;99.90;;;;;;5070257;28;20044;-45
2022/06/26 11:13:57;;;;;;;6.90;2.25;;;23.70;99.90;;;;;;5071977;28;20071;-50
2022/06/26 11:16:35;;;;;;;6.38;1.77;;;23.70;99.90;;;;;;5068874;28;20047;-48
2022/06/26 11:19:04;;;;;;;5.00;2.20;;;23.80;99.90;;;;;;5071661;28;20658;-45
2022/06/26 11:21:30;;;;;;;5.53;2.10;;;23.60;99.90;;;;;;5072097;28;20105;-49
2022/06/26 11:23:57;;;;;;;5.63;1.70;;;23.60;99.90;;;;;;5071984;28;20047;-48
2022/06/26 11:26:25;;;;;;;4.30;1.77;;;23.90;99.90;;;;;;5069455;28;20044;-48
2022/06/26 11:28:59;;;;;;;7.50;1.80;;;23.80;99.90;;;;;;5072604;28;20036;-48
2022/06/26 11:31:30;;;;;;;5.78;1.80;;;23.90;99.90;;;;;;5072853;28;20856;-49
2022/06/26 11:34:10;;;;;;;5.85;1.80;;;24.10;99.90;;;;;;5073260;28;20044;-47
2022/06/26 11:36:36;;;;;;;5.90;1.90;;;24.00;99.90;;;;;;5073009;28;20055;-45
2022/06/26 11:39:04;;;;;;;3.67;1.58;;;24.30;99.90;;;;;;5072563;28;20025;-47
2022/06/26 11:41:29;;;;;;;4.38;1.48;;;24.40;99.90;;;;;;5075530;28;20047;-47
2022/06/26 11:43:57;;;;;;;4.70;1.50;;;24.40;99.90;;;;;;5077115;28;20037;-45
2022/06/26 11:46:23;;;;;;;7.13;2.10;;;24.10;99.90;;;;;;5075705;28;20052;-46
2022/06/26 11:48:53;;;;;;;6.70;1.60;;;25.90;99.90;;;;;;5076331;28;20044;-46
2022/06/26 11:51:20;;;;;;;5.65;1.58;;;23.60;99.90;;;;;;5074632;28;20066;-45
2022/06/26 11:53:49;;;;;;;5.20;1.50;;;23.50;99.90;;;;;;5075783;28;20051;-48
2022/06/26 11:56:24;;;;;;;4.60;1.58;;;23.40;99.90;;;;;;5076292;28;20043;-46
2022/06/26 11:58:52;;;;;;;5.88;1.70;;;25.70;99.90;;;;;;5076726;28;20526;-48
2022/06/26 12:01:19;;;;;;;6.38;1.55;;;23.40;99.90;;;;;;5076599;28;20482;-49
2022/06/26 12:03:49;;;;;;;4.90;1.50;;;23.60;99.90;;;;;;5075954;28;20042;-47
2022/06/26 12:06:35;;;;;;;5.10;1.50;;;23.50;99.90;;;;;;5075708;28;20698;-50
2022/06/26 12:09:24;;;;;;;8.23;3.15;;;23.40;99.90;;;;;;5075115;28;20530;-47
2022/06/26 12:11:54;;;;;;;4.60;1.52;;;23.40;99.90;;;;;;5074451;28;20048;-45
2022/06/26 12:14:24;;;;;;;7.97;1.92;;;23.60;99.90;;;;;;5074845;28;20361;-49
2022/06/26 12:16:56;;;;;;;6.03;1.80;;;23.30;99.90;;;;;;5075125;28;20051;-48
2022/06/26 12:19:23;;;;;;;10.70;1.90;;;23.20;99.90;;;;;;5074309;28;20032;-47
2022/06/26 12:21:52;;;;;;;7.18;2.30;;;23.40;99.90;;;;;;5073579;28;20040;-47
2022/06/26 12:24:19;;;;;;;6.30;2.20;;;23.20;99.90;;;;;;5073330;28;20089;-47
2022/06/26 12:26:45;;;;;;;6.57;1.85;;;23.70;99.90;;;;;;5076520;28;20135;-47
2022/06/26 12:29:18;;;;;;;5.72;2.20;;;23.20;99.90;;;;;;5075670;28;20679;-47
2022/06/26 12:31:44;;;;;;;7.75;2.10;;;23.10;99.90;;;;;;5076368;28;20051;-46
2022/06/26 12:34:10;;;;;;;5.28;1.98;;;22.90;99.90;;;;;;5075231;28;20036;-47
2022/06/26 12:36:38;;;;;;;8.20;2.63;;;23.00;99.90;;;;;;5074060;28;20032;-46
2022/06/26 12:39:06;;;;;;;8.60;2.20;;;23.20;99.90;;;;;;5073978;28;20121;-46
2022/06/26 12:41:32;;;;;;;16.75;3.08;;;22.90;99.90;;;;;;5075083;28;20047;-48
2022/06/26 12:44:03;;;;;;;5.55;2.10;;;22.90;99.90;;;;;;5076399;28;20040;-49
2022/06/26 12:46:30;;;;;;;9.45;3.03;;;22.90;99.90;;;;;;5074165;28;21073;-48
2022/06/26 12:49:01;;;;;;;5.82;2.60;;;22.80;99.90;;;;;;5076441;28;20036;-46
2022/06/26 12:51:27;;;;;;;8.27;2.40;;;22.50;99.90;;;;;;5075364;28;20393;-47
2022/06/26 12:53:53;;;;;;;4.65;1.92;;;22.60;99.90;;;;;;5074456;28;20068;-48